sensor_id;sensor_type;location;lat;lon;timestamp;pressure;altitude;pressure_sealevel;temperature;humidity
6198;BME280;3132;42.622;23.328;2024-02-21T00:01:18;93381.00;;;5.39;97.87
6198;BME280;3132;42.622;23.328;2024-02-21T00:03:45;93378.53;;;5.44;96.59
6198;BME280;3132;42.622;23.328;2024-02-21T00:06:10;93378.31;;;5.34;97.59
6198;BME280;3132;42.622;23.328;2024-02-21T00:08:35;93363.94;;;5.15;97.11
6198;BME280;3132;42.622;23.328;2024-02-21T00:11:01;93368.97;;;5.33;97.08
6198;BME280;3132;42.622;23.328;2024-02-21T00:13:26;93356.69;;;5.40;96.94
6198;BME280;3132;42.622;23.328;2024-02-21T00:15:51;93349.63;;;5.24;96.45
6198;BME280;3132;42.622;23.328;2024-02-21T00:18:17;93369.44;;;5.30;96.85
6198;BME280;3132;42.622;23.328;2024-02-21T00:20:42;93358.31;;;5.18;97.42
6198;BME280;3132;42.622;23.328;2024-02-21T00:23:07;93370.13;;;5.25;97.35
6198;BME280;3132;42.622;23.328;2024-02-21T00:25:33;93362.16;;;5.04;98.04
6198;BME280;3132;42.622;23.328;2024-02-21T00:27:58;93365.63;;;5.09;98.61
6198;BME280;3132;42.622;23.328;2024-02-21T00:30:25;93362.56;;;5.24;97.69
6198;BME280;3132;42.622;23.328;2024-02-21T00:32:50;93331.56;;;5.01;97.32
6198;BME280;3132;42.622;23.328;2024-02-21T00:35:15;93358.00;;;5.03;98.27
6198;BME280;3132;42.622;23.328;2024-02-21T00:37:41;93364.50;;;4.93;99.15
6198;BME280;3132;42.622;23.328;2024-02-21T00:40:06;93326.06;;;4.74;98.69
6198;BME280;3132;42.622;23.328;2024-02-21T00:42:32;93364.03;;;4.96;99.67
6198;BME280;3132;42.622;23.328;2024-02-21T00:44:58;93325.72;;;4.70;100.00
6198;BME280;3132;42.622;23.328;2024-02-21T00:47:23;93354.94;;;4.82;100.00
6198;BME280;3132;42.622;23.328;2024-02-21T00:49:48;93343.28;;;4.68;100.00
6198;BME280;3132;42.622;23.328;2024-02-21T00:52:14;93337.75;;;4.76;100.00
6198;BME280;3132;42.622;23.328;2024-02-21T00:54:39;93341.00;;;4.72;100.00
6198;BME280;3132;42.622;23.328;2024-02-21T00:57:04;93347.09;;;4.77;100.00
6198;BME280;3132;42.622;23.328;2024-02-21T00:59:30;93342.69;;;4.89;99.94
6198;BME280;3132;42.622;23.328;2024-02-21T01:01:55;93336.94;;;4.87;99.91
6198;BME280;3132;42.622;23.328;2024-02-21T01:04:20;93337.50;;;4.78;100.00
6198;BME280;3132;42.622;23.328;2024-02-21T01:06:46;93323.81;;;4.77;100.00
6198;BME280;3132;42.622;23.328;2024-02-21T01:09:11;93258.38;;;4.42;100.00
6198;BME280;3132;42.622;23.328;2024-02-21T01:11:36;93328.97;;;4.89;100.00
6198;BME280;3132;42.622;23.328;2024-02-21T01:14:02;93320.31;;;4.83;100.00
6198;BME280;3132;42.622;23.328;2024-02-21T01:16:27;93321.22;;;4.77;100.00
6198;BME280;3132;42.622;23.328;2024-02-21T01:18:52;93327.06;;;4.73;100.00
6198;BME280;3132;42.622;23.328;2024-02-21T01:21:18;93334.25;;;4.94;100.00
6198;BME280;3132;42.622;23.328;2024-02-21T01:23:43;93297.16;;;4.65;100.00
6198;BME280;3132;42.622;23.328;2024-02-21T01:26:08;93305.72;;;4.77;100.00
6198;BME280;3132;42.622;23.328;2024-02-21T01:28:38;93299.06;;;4.81;100.00
6198;BME280;3132;42.622;23.328;2024-02-21T01:31:03;93315.72;;;4.85;99.99
6198;BME280;3132;42.622;23.328;2024-02-21T01:33:28;93302.09;;;4.78;100.00
6198;BME280;3132;42.622;23.328;2024-02-21T01:36:00;93323.00;;;4.77;98.91
6198;BME280;3132;42.622;23.328;2024-02-21T01:38:25;93312.34;;;4.85;98.66
6198;BME280;3132;42.622;23.328;2024-02-21T01:40:50;93317.94;;;4.93;98.02
6198;BME280;3132;42.622;23.328;2024-02-21T01:43:17;93318.84;;;4.99;97.74
6198;BME280;3132;42.622;23.328;2024-02-21T01:45:47;93310.63;;;5.14;96.64
6198;BME280;3132;42.622;23.328;2024-02-21T01:48:13;93303.50;;;5.09;96.16
6198;BME280;3132;42.622;23.328;2024-02-21T01:50:39;93304.53;;;5.20;97.24
6198;BME280;3132;42.622;23.328;2024-02-21T01:53:05;93306.31;;;5.19;95.72
6198;BME280;3132;42.622;23.328;2024-02-21T01:55:31;93281.50;;;4.95;95.25
6198;BME280;3132;42.622;23.328;2024-02-21T01:57:56;93309.72;;;5.08;94.77
6198;BME280;3132;42.622;23.328;2024-02-21T02:00:22;93304.44;;;5.03;94.26
6198;BME280;3132;42.622;23.328;2024-02-21T02:02:48;93315.78;;;5.14;94.85
6198;BME280;3132;42.622;23.328;2024-02-21T02:05:14;93309.59;;;5.15;93.86
6198;BME280;3132;42.622;23.328;2024-02-21T02:07:40;93286.75;;;5.12;92.91
6198;BME280;3132;42.622;23.328;2024-02-21T02:10:05;93296.47;;;5.33;94.53
6198;BME280;3132;42.622;23.328;2024-02-21T02:12:31;93309.25;;;5.23;92.92
6198;BME280;3132;42.622;23.328;2024-02-21T02:15:01;93313.56;;;5.45;91.61
6198;BME280;3132;42.622;23.328;2024-02-21T02:17:30;93280.84;;;5.28;91.18
6198;BME280;3132;42.622;23.328;2024-02-21T02:19:55;93294.34;;;5.30;91.14
6198;BME280;3132;42.622;23.328;2024-02-21T02:22:22;93305.91;;;5.39;91.55
6198;BME280;3132;42.622;23.328;2024-02-21T02:24:51;93286.47;;;5.25;91.23
6198;BME280;3132;42.622;23.328;2024-02-21T02:27:16;93301.66;;;5.33;91.46
6198;BME280;3132;42.622;23.328;2024-02-21T02:29:42;93302.22;;;5.35;91.52
6198;BME280;3132;42.622;23.328;2024-02-21T02:32:07;93304.50;;;5.59;92.86
6198;BME280;3132;42.622;23.328;2024-02-21T02:34:32;93304.91;;;5.40;91.55
6198;BME280;3132;42.622;23.328;2024-02-21T02:36:57;93298.06;;;5.34;91.47
6198;BME280;3132;42.622;23.328;2024-02-21T02:39:23;93287.16;;;5.32;91.21
6198;BME280;3132;42.622;23.328;2024-02-21T02:41:48;93280.78;;;5.23;91.86
6198;BME280;3132;42.622;23.328;2024-02-21T02:44:14;93270.09;;;5.19;91.79
6198;BME280;3132;42.622;23.328;2024-02-21T02:46:42;93262.97;;;5.26;91.26
6198;BME280;3132;42.622;23.328;2024-02-21T02:49:08;93290.78;;;5.31;92.18
6198;BME280;3132;42.622;23.328;2024-02-21T02:51:34;93261.66;;;5.12;93.18
6198;BME280;3132;42.622;23.328;2024-02-21T02:53:59;93273.78;;;5.23;91.86
6198;BME280;3132;42.622;23.328;2024-02-21T02:56:25;93299.75;;;5.40;91.83
6198;BME280;3132;42.622;23.328;2024-02-21T02:58:50;93271.22;;;5.12;92.31
6198;BME280;3132;42.622;23.328;2024-02-21T03:01:15;93297.22;;;5.17;92.92
6198;BME280;3132;42.622;23.328;2024-02-21T03:03:41;93287.50;;;5.35;92.58
6198;BME280;3132;42.622;23.328;2024-02-21T03:06:06;93290.44;;;5.27;91.49
6198;BME280;3132;42.622;23.328;2024-02-21T03:08:31;93300.38;;;5.47;90.60
6198;BME280;3132;42.622;23.328;2024-02-21T03:10:58;93291.91;;;5.23;91.93
6198;BME280;3132;42.622;23.328;2024-02-21T03:13:25;93301.13;;;5.31;93.11
6198;BME280;3132;42.622;23.328;2024-02-21T03:15:50;93305.84;;;5.34;91.51
6198;BME280;3132;42.622;23.328;2024-02-21T03:18:15;93317.00;;;5.23;91.85
6198;BME280;3132;42.622;23.328;2024-02-21T03:20:41;93317.09;;;5.28;91.64
6198;BME280;3132;42.622;23.328;2024-02-21T03:23:07;93317.53;;;5.36;90.49
6198;BME280;3132;42.622;23.328;2024-02-21T03:25:32;93312.38;;;5.25;90.82
6198;BME280;3132;42.622;23.328;2024-02-21T03:27:57;93320.25;;;5.30;90.02
6198;BME280;3132;42.622;23.328;2024-02-21T03:30:23;93313.28;;;5.19;90.63
6198;BME280;3132;42.622;23.328;2024-02-21T03:32:48;93308.13;;;5.19;89.94
6198;BME280;3132;42.622;23.328;2024-02-21T03:35:14;93323.97;;;5.34;89.80
6198;BME280;3132;42.622;23.328;2024-02-21T03:37:39;93326.09;;;5.37;89.89
6198;BME280;3132;42.622;23.328;2024-02-21T03:40:10;93301.31;;;5.01;90.58
6198;BME280;3132;42.622;23.328;2024-02-21T03:42:36;93272.28;;;4.99;90.21
6198;BME280;3132;42.622;23.328;2024-02-21T03:45:02;93329.69;;;5.36;89.83
6198;BME280;3132;42.622;23.328;2024-02-21T03:47:28;93330.53;;;5.53;88.44
6198;BME280;3132;42.622;23.328;2024-02-21T03:49:54;93324.44;;;5.31;88.58
6198;BME280;3132;42.622;23.328;2024-02-21T03:52:19;93313.97;;;5.26;87.98
6198;BME280;3132;42.622;23.328;2024-02-21T03:54:45;93329.84;;;5.29;88.65
6198;BME280;3132;42.622;23.328;2024-02-21T03:57:10;93326.00;;;5.32;87.07
6198;BME280;3132;42.622;23.328;2024-02-21T03:59:35;93324.44;;;5.31;87.58
6198;BME280;3132;42.622;23.328;2024-02-21T04:02:01;93303.22;;;5.06;88.95
6198;BME280;3132;42.622;23.328;2024-02-21T04:04:29;93313.75;;;5.16;89.54
6198;BME280;3132;42.622;23.328;2024-02-21T04:06:54;93329.50;;;5.14;89.35
6198;BME280;3132;42.622;23.328;2024-02-21T04:09:19;93323.75;;;5.12;90.28
6198;BME280;3132;42.622;23.328;2024-02-21T04:11:45;93327.31;;;5.34;90.29
6198;BME280;3132;42.622;23.328;2024-02-21T04:14:10;93321.59;;;5.32;93.17
6198;BME280;3132;42.622;23.328;2024-02-21T04:16:36;93314.25;;;5.41;94.08
6198;BME280;3132;42.622;23.328;2024-02-21T04:19:02;93326.41;;;5.40;91.05
6198;BME280;3132;42.622;23.328;2024-02-21T04:21:27;93324.03;;;5.39;91.13
6198;BME280;3132;42.622;23.328;2024-02-21T04:23:52;93315.81;;;5.42;91.14
6198;BME280;3132;42.622;23.328;2024-02-21T04:26:18;93319.03;;;5.09;92.33
6198;BME280;3132;42.622;23.328;2024-02-21T04:28:45;93313.09;;;5.09;93.00
6198;BME280;3132;42.622;23.328;2024-02-21T04:31:10;93316.44;;;5.32;92.40
6198;BME280;3132;42.622;23.328;2024-02-21T04:33:35;93325.88;;;5.27;92.89
6198;BME280;3132;42.622;23.328;2024-02-21T04:36:01;93322.84;;;5.30;93.16
6198;BME280;3132;42.622;23.328;2024-02-21T04:38:27;93318.47;;;5.19;93.74
6198;BME280;3132;42.622;23.328;2024-02-21T04:40:54;93326.69;;;5.16;93.43
6198;BME280;3132;42.622;23.328;2024-02-21T04:43:19;93330.88;;;4.93;94.93
6198;BME280;3132;42.622;23.328;2024-02-21T04:45:45;93326.16;;;4.90;94.87
6198;BME280;3132;42.622;23.328;2024-02-21T04:48:10;93325.25;;;4.73;95.00
6198;BME280;3132;42.622;23.328;2024-02-21T04:50:35;93326.72;;;4.81;96.19
6198;BME280;3132;42.622;23.328;2024-02-21T04:53:01;93327.97;;;4.55;96.12
6198;BME280;3132;42.622;23.328;2024-02-21T04:55:26;93327.63;;;4.52;97.27
6198;BME280;3132;42.622;23.328;2024-02-21T04:57:51;93305.22;;;4.34;96.95
6198;BME280;3132;42.622;23.328;2024-02-21T05:00:17;93298.06;;;4.36;97.08
6198;BME280;3132;42.622;23.328;2024-02-21T05:02:42;93322.44;;;4.52;97.77
6198;BME280;3132;42.622;23.328;2024-02-21T05:05:08;93320.75;;;4.46;97.67
6198;BME280;3132;42.622;23.328;2024-02-21T05:07:34;93308.63;;;4.46;96.86
6198;BME280;3132;42.622;23.328;2024-02-21T05:10:00;93335.69;;;4.44;96.61
6198;BME280;3132;42.622;23.328;2024-02-21T05:12:25;93328.19;;;4.31;96.06
6198;BME280;3132;42.622;23.328;2024-02-21T05:14:51;93314.31;;;4.25;96.88
6198;BME280;3132;42.622;23.328;2024-02-21T05:17:17;93333.44;;;4.36;95.77
6198;BME280;3132;42.622;23.328;2024-02-21T05:19:42;93334.81;;;4.38;95.70
6198;BME280;3132;42.622;23.328;2024-02-21T05:22:07;93337.97;;;4.52;94.92
6198;BME280;3132;42.622;23.328;2024-02-21T05:24:32;93347.94;;;4.48;93.13
6198;BME280;3132;42.622;23.328;2024-02-21T05:26:58;93336.16;;;4.41;92.73
6198;BME280;3132;42.622;23.328;2024-02-21T05:29:23;93336.41;;;4.51;92.36
6198;BME280;3132;42.622;23.328;2024-02-21T05:34:17;93317.63;;;4.55;91.86
6198;BME280;3132;42.622;23.328;2024-02-21T05:36:43;93331.66;;;4.59;91.39
6198;BME280;3132;42.622;23.328;2024-02-21T05:39:08;93327.63;;;4.63;91.50
6198;BME280;3132;42.622;23.328;2024-02-21T05:41:34;93341.59;;;4.85;91.27
6198;BME280;3132;42.622;23.328;2024-02-21T05:43:59;93335.50;;;4.80;90.84
6198;BME280;3132;42.622;23.328;2024-02-21T05:46:24;93341.34;;;5.10;90.47
6198;BME280;3132;42.622;23.328;2024-02-21T05:48:50;93339.28;;;5.24;89.90
6198;BME280;3132;42.622;23.328;2024-02-21T05:51:15;93335.66;;;5.25;89.54
6198;BME280;3132;42.622;23.328;2024-02-21T05:53:40;93333.97;;;5.30;88.27
6198;BME280;3132;42.622;23.328;2024-02-21T05:56:12;93338.25;;;5.36;88.33
6198;BME280;3132;42.622;23.328;2024-02-21T05:58:38;93338.13;;;5.31;88.38
6198;BME280;3132;42.622;23.328;2024-02-21T06:01:03;93354.22;;;5.45;88.70
6198;BME280;3132;42.622;23.328;2024-02-21T06:03:30;93320.19;;;5.02;89.61
6198;BME280;3132;42.622;23.328;2024-02-21T06:05:55;93354.81;;;5.12;90.22
6198;BME280;3132;42.622;23.328;2024-02-21T06:08:21;93354.72;;;5.07;90.32
6198;BME280;3132;42.622;23.328;2024-02-21T06:10:46;93361.00;;;5.11;89.79
6198;BME280;3132;42.622;23.328;2024-02-21T06:13:13;93374.50;;;5.25;89.57
6198;BME280;3132;42.622;23.328;2024-02-21T06:15:39;93370.44;;;5.29;89.73
6198;BME280;3132;42.622;23.328;2024-02-21T06:18:04;93374.72;;;5.35;89.76
6198;BME280;3132;42.622;23.328;2024-02-21T06:20:29;93377.72;;;5.55;89.48
6198;BME280;3132;42.622;23.328;2024-02-21T06:22:55;93381.84;;;5.67;88.30
6198;BME280;3132;42.622;23.328;2024-02-21T06:25:20;93355.22;;;5.44;88.26
6198;BME280;3132;42.622;23.328;2024-02-21T06:27:45;93375.84;;;5.78;87.98
6198;BME280;3132;42.622;23.328;2024-02-21T06:30:11;93325.91;;;5.55;87.23
6198;BME280;3132;42.622;23.328;2024-02-21T06:32:36;93378.66;;;5.77;87.65
6198;BME280;3132;42.622;23.328;2024-02-21T06:35:03;93378.91;;;5.75;87.76
6198;BME280;3132;42.622;23.328;2024-02-21T06:37:29;93388.25;;;5.88;86.77
6198;BME280;3132;42.622;23.328;2024-02-21T06:39:55;93373.16;;;5.85;87.08
6198;BME280;3132;42.622;23.328;2024-02-21T06:42:20;93357.25;;;5.93;85.92
6198;BME280;3132;42.622;23.328;2024-02-21T06:44:46;93363.25;;;6.10;85.56
6198;BME280;3132;42.622;23.328;2024-02-21T06:47:12;93386.94;;;6.30;85.15
6198;BME280;3132;42.622;23.328;2024-02-21T06:49:37;93389.53;;;6.30;85.47
6198;BME280;3132;42.622;23.328;2024-02-21T06:52:04;93382.69;;;6.24;85.34
6198;BME280;3132;42.622;23.328;2024-02-21T06:54:30;93407.41;;;6.15;86.57
6198;BME280;3132;42.622;23.328;2024-02-21T06:56:55;93410.81;;;6.04;86.35
6198;BME280;3132;42.622;23.328;2024-02-21T06:59:20;93403.97;;;5.98;87.33
6198;BME280;3132;42.622;23.328;2024-02-21T07:01:48;93401.38;;;6.26;86.82
6198;BME280;3132;42.622;23.328;2024-02-21T07:04:14;93389.41;;;6.53;85.59
6198;BME280;3132;42.622;23.328;2024-02-21T07:06:40;93408.84;;;6.67;84.80
6198;BME280;3132;42.622;23.328;2024-02-21T07:09:05;93395.34;;;6.37;86.49
6198;BME280;3132;42.622;23.328;2024-02-21T07:11:30;93401.06;;;6.67;85.92
6198;BME280;3132;42.622;23.328;2024-02-21T07:13:56;93403.78;;;6.44;86.01
6198;BME280;3132;42.622;23.328;2024-02-21T07:16:21;93403.41;;;6.52;85.80
6198;BME280;3132;42.622;23.328;2024-02-21T07:18:46;93402.47;;;6.75;84.97
6198;BME280;3132;42.622;23.328;2024-02-21T07:21:12;93388.59;;;6.36;85.67
6198;BME280;3132;42.622;23.328;2024-02-21T07:23:42;93410.25;;;6.58;86.41
6198;BME280;3132;42.622;23.328;2024-02-21T07:26:08;93411.44;;;6.67;86.44
6198;BME280;3132;42.622;23.328;2024-02-21T07:28:33;93415.53;;;6.80;85.48
6198;BME280;3132;42.622;23.328;2024-02-21T07:30:59;93416.53;;;6.62;85.96
6198;BME280;3132;42.622;23.328;2024-02-21T07:33:25;93413.63;;;6.75;85.30
6198;BME280;3132;42.622;23.328;2024-02-21T07:35:50;93410.44;;;6.40;85.53
6198;BME280;3132;42.622;23.328;2024-02-21T07:38:16;93396.28;;;6.31;86.62
6198;BME280;3132;42.622;23.328;2024-02-21T07:40:44;93411.09;;;6.47;86.15
6198;BME280;3132;42.622;23.328;2024-02-21T07:43:10;93413.59;;;6.58;86.26
6198;BME280;3132;42.622;23.328;2024-02-21T07:45:35;93418.41;;;6.67;86.12
6198;BME280;3132;42.622;23.328;2024-02-21T07:48:01;93419.31;;;6.72;86.16
6198;BME280;3132;42.622;23.328;2024-02-21T07:50:26;93397.75;;;6.55;85.75
6198;BME280;3132;42.622;23.328;2024-02-21T07:52:52;93412.66;;;6.65;86.65
6198;BME280;3132;42.622;23.328;2024-02-21T07:55:17;93399.63;;;6.76;85.22
6198;BME280;3132;42.622;23.328;2024-02-21T07:57:42;93402.78;;;6.95;84.00
6198;BME280;3132;42.622;23.328;2024-02-21T08:00:08;93397.69;;;6.83;83.77
6198;BME280;3132;42.622;23.328;2024-02-21T08:02:35;93421.03;;;6.83;84.86
6198;BME280;3132;42.622;23.328;2024-02-21T08:05:01;93399.63;;;6.76;84.56
6198;BME280;3132;42.622;23.328;2024-02-21T08:07:26;93395.56;;;6.97;83.64
6198;BME280;3132;42.622;23.328;2024-02-21T08:09:54;93417.41;;;7.01;84.05
6198;BME280;3132;42.622;23.328;2024-02-21T08:12:19;93410.16;;;7.19;83.83
6198;BME280;3132;42.622;23.328;2024-02-21T08:14:44;93394.16;;;7.27;83.25
6198;BME280;3132;42.622;23.328;2024-02-21T08:17:10;93419.06;;;7.23;82.03
6198;BME280;3132;42.622;23.328;2024-02-21T08:19:35;93399.50;;;6.66;83.53
6198;BME280;3132;42.622;23.328;2024-02-21T08:22:00;93413.41;;;6.93;83.52
6198;BME280;3132;42.622;23.328;2024-02-21T08:24:26;93411.13;;;6.97;82.86
6198;BME280;3132;42.622;23.328;2024-02-21T08:26:51;93403.25;;;6.92;83.36
6198;BME280;3132;42.622;23.328;2024-02-21T08:29:16;93396.28;;;7.30;83.27
6198;BME280;3132;42.622;23.328;2024-02-21T08:31:42;93417.94;;;7.36;81.70
6198;BME280;3132;42.622;23.328;2024-02-21T08:34:07;93401.63;;;7.40;81.58
6198;BME280;3132;42.622;23.328;2024-02-21T08:36:34;93417.06;;;7.47;81.05
6198;BME280;3132;42.622;23.328;2024-02-21T08:39:00;93393.63;;;7.63;79.89
6198;BME280;3132;42.622;23.328;2024-02-21T08:41:26;93411.31;;;8.09;78.52
6198;BME280;3132;42.622;23.328;2024-02-21T08:43:52;93411.69;;;7.96;76.96
6198;BME280;3132;42.622;23.328;2024-02-21T08:46:21;93392.88;;;8.11;76.40
6198;BME280;3132;42.622;23.328;2024-02-21T08:48:47;93405.47;;;7.97;75.45
6198;BME280;3132;42.622;23.328;2024-02-21T08:51:13;93410.31;;;8.10;74.87
6198;BME280;3132;42.622;23.328;2024-02-21T08:53:38;93416.63;;;8.19;73.22
6198;BME280;3132;42.622;23.328;2024-02-21T08:56:05;93409.69;;;8.03;72.18
6198;BME280;3132;42.622;23.328;2024-02-21T08:58:30;93407.16;;;7.87;72.54
6198;BME280;3132;42.622;23.328;2024-02-21T09:00:56;93413.34;;;8.24;72.52
6198;BME280;3132;42.622;23.328;2024-02-21T09:03:22;93419.84;;;8.27;74.17
6198;BME280;3132;42.622;23.328;2024-02-21T09:05:47;93420.28;;;8.18;72.55
6198;BME280;3132;42.622;23.328;2024-02-21T09:08:12;93374.19;;;7.92;73.44
6198;BME280;3132;42.622;23.328;2024-02-21T09:10:39;93411.09;;;8.33;73.03
6198;BME280;3132;42.622;23.328;2024-02-21T09:13:05;93418.06;;;7.84;74.64
6198;BME280;3132;42.622;23.328;2024-02-21T09:15:31;93412.88;;;7.67;75.70
6198;BME280;3132;42.622;23.328;2024-02-21T09:17:57;93416.03;;;8.12;74.23
6198;BME280;3132;42.622;23.328;2024-02-21T09:20:22;93417.56;;;8.08;74.36
6198;BME280;3132;42.622;23.328;2024-02-21T09:22:47;93420.91;;;8.26;74.49
6198;BME280;3132;42.622;23.328;2024-02-21T09:25:13;93409.88;;;8.18;73.86
6198;BME280;3132;42.622;23.328;2024-02-21T09:27:38;93412.91;;;8.10;74.96
6198;BME280;3132;42.622;23.328;2024-02-21T09:30:05;93409.72;;;8.52;75.43
6198;BME280;3132;42.622;23.328;2024-02-21T09:32:30;93409.75;;;8.57;73.16
6198;BME280;3132;42.622;23.328;2024-02-21T09:34:57;93409.19;;;8.50;75.24
6198;BME280;3132;42.622;23.328;2024-02-21T09:37:22;93407.94;;;8.31;74.64
6198;BME280;3132;42.622;23.328;2024-02-21T09:39:48;93429.56;;;8.31;74.80
6198;BME280;3132;42.622;23.328;2024-02-21T09:42:14;93408.25;;;8.34;72.99
6198;BME280;3132;42.622;23.328;2024-02-21T09:44:45;93420.50;;;8.92;74.00
6198;BME280;3132;42.622;23.328;2024-02-21T09:49:42;93421.69;;;8.79;72.04
6198;BME280;3132;42.622;23.328;2024-02-21T09:52:09;93420.53;;;8.65;73.33
6198;BME280;3132;42.622;23.328;2024-02-21T09:54:37;93410.75;;;9.09;74.22
6198;BME280;3132;42.622;23.328;2024-02-21T09:57:03;93421.31;;;9.34;69.64
6198;BME280;3132;42.622;23.328;2024-02-21T09:59:31;93422.63;;;9.00;69.83
6198;BME280;3132;42.622;23.328;2024-02-21T10:01:57;93427.38;;;9.08;68.29
6198;BME280;3132;42.622;23.328;2024-02-21T10:04:24;93415.94;;;8.77;69.91
6198;BME280;3132;42.622;23.328;2024-02-21T10:06:50;93398.28;;;8.84;73.60
6198;BME280;3132;42.622;23.328;2024-02-21T10:11:48;93405.66;;;8.66;75.57
6198;BME280;3132;42.622;23.328;2024-02-21T10:14:15;93412.81;;;9.07;73.66
6198;BME280;3132;42.622;23.328;2024-02-21T10:16:40;93410.16;;;9.02;72.97
6198;BME280;3132;42.622;23.328;2024-02-21T10:19:06;93403.22;;;9.17;71.69
6198;BME280;3132;42.622;23.328;2024-02-21T10:21:31;93397.53;;;8.89;67.55
6198;BME280;3132;42.622;23.328;2024-02-21T10:23:56;93388.88;;;8.52;68.55
6198;BME280;3132;42.622;23.328;2024-02-21T10:26:22;93406.88;;;8.85;66.82
6198;BME280;3132;42.622;23.328;2024-02-21T10:28:48;93402.78;;;8.94;66.53
6198;BME280;3132;42.622;23.328;2024-02-21T10:31:24;93400.31;;;9.09;65.01
6198;BME280;3132;42.622;23.328;2024-02-21T10:34:09;93403.59;;;8.94;65.36
6198;BME280;3132;42.622;23.328;2024-02-21T10:36:41;93392.06;;;9.22;64.93
6198;BME280;3132;42.622;23.328;2024-02-21T10:39:07;93386.00;;;9.11;64.23
6198;BME280;3132;42.622;23.328;2024-02-21T10:41:32;93336.50;;;8.75;63.33
6198;BME280;3132;42.622;23.328;2024-02-21T10:44:00;93367.63;;;8.91;64.55
6198;BME280;3132;42.622;23.328;2024-02-21T10:46:30;93369.03;;;9.04;64.27
6198;BME280;3132;42.622;23.328;2024-02-21T10:49:06;93365.41;;;9.10;64.94
6198;BME280;3132;42.622;23.328;2024-02-21T10:51:34;93353.75;;;8.81;65.07
6198;BME280;3132;42.622;23.328;2024-02-21T10:54:55;93354.31;;;8.88;63.20
6198;BME280;3132;42.622;23.328;2024-02-21T10:57:02;93359.81;;;9.33;60.44
6198;BME280;3132;42.622;23.328;2024-02-21T10:59:30;93355.63;;;9.27;62.28
6198;BME280;3132;42.622;23.328;2024-02-21T11:01:57;93349.00;;;9.09;63.46
6198;BME280;3132;42.622;23.328;2024-02-21T11:04:23;93343.28;;;8.76;62.27
6198;BME280;3132;42.622;23.328;2024-02-21T11:06:49;93352.50;;;8.88;63.82
6198;BME280;3132;42.622;23.328;2024-02-21T11:09:15;93333.53;;;8.61;64.08
6198;BME280;3132;42.622;23.328;2024-02-21T11:11:43;93339.16;;;8.80;64.00
6198;BME280;3132;42.622;23.328;2024-02-21T11:16:38;93339.94;;;9.22;62.34
6198;BME280;3132;42.622;23.328;2024-02-21T11:19:47;93338.44;;;9.26;59.83
6198;BME280;3132;42.622;23.328;2024-02-21T11:21:55;93341.44;;;9.59;59.42
6198;BME280;3132;42.622;23.328;2024-02-21T11:24:34;93344.31;;;9.58;58.87
6198;BME280;3132;42.622;23.328;2024-02-21T11:29:40;93343.88;;;9.71;59.91
6198;BME280;3132;42.622;23.328;2024-02-21T11:32:09;93338.22;;;9.37;60.73
6198;BME280;3132;42.622;23.328;2024-02-21T11:34:34;93331.13;;;9.85;61.35
6198;BME280;3132;42.622;23.328;2024-02-21T11:37:00;93332.38;;;9.72;59.60
6198;BME280;3132;42.622;23.328;2024-02-21T11:39:26;93323.28;;;9.79;59.71
6198;BME280;3132;42.622;23.328;2024-02-21T11:42:04;93303.56;;;9.37;61.83
6198;BME280;3132;42.622;23.328;2024-02-21T11:44:31;93316.34;;;9.43;61.70
6198;BME280;3132;42.622;23.328;2024-02-21T11:46:57;93318.22;;;9.53;61.79
6198;BME280;3132;42.622;23.328;2024-02-21T11:49:28;93317.72;;;9.56;60.47
6198;BME280;3132;42.622;23.328;2024-02-21T11:52:03;93316.16;;;9.55;59.30
6198;BME280;3132;42.622;23.328;2024-02-21T11:54:32;93310.53;;;9.26;58.83
6198;BME280;3132;42.622;23.328;2024-02-21T11:56:58;93317.06;;;9.29;59.93
6198;BME280;3132;42.622;23.328;2024-02-21T11:59:24;93301.56;;;9.02;60.59
6198;BME280;3132;42.622;23.328;2024-02-21T12:01:49;93309.09;;;8.99;61.91
6198;BME280;3132;42.622;23.328;2024-02-21T12:04:17;93311.22;;;8.65;63.45
6198;BME280;3132;42.622;23.328;2024-02-21T12:06:45;93300.56;;;8.72;63.81
6198;BME280;3132;42.622;23.328;2024-02-21T12:09:14;93309.41;;;8.71;65.08
6198;BME280;3132;42.622;23.328;2024-02-21T12:11:40;93272.44;;;8.69;63.76
6198;BME280;3132;42.622;23.328;2024-02-21T12:14:05;93303.00;;;8.83;63.46
6198;BME280;3132;42.622;23.328;2024-02-21T12:16:32;93296.84;;;8.99;63.29
6198;BME280;3132;42.622;23.328;2024-02-21T12:18:59;93291.88;;;8.93;63.78
6198;BME280;3132;42.622;23.328;2024-02-21T12:21:25;93289.00;;;8.94;63.07
6198;BME280;3132;42.622;23.328;2024-02-21T12:23:53;93285.97;;;8.71;64.28
6198;BME280;3132;42.622;23.328;2024-02-21T12:26:18;93295.53;;;8.97;64.82
6198;BME280;3132;42.622;23.328;2024-02-21T12:28:44;93290.19;;;8.77;64.19
6198;BME280;3132;42.622;23.328;2024-02-21T12:31:09;93286.38;;;8.53;64.75
6198;BME280;3132;42.622;23.328;2024-02-21T12:33:34;93289.53;;;8.60;65.81
6198;BME280;3132;42.622;23.328;2024-02-21T12:36:00;93288.75;;;8.59;65.61
6198;BME280;3132;42.622;23.328;2024-02-21T12:38:25;93273.47;;;8.31;66.89
6198;BME280;3132;42.622;23.328;2024-02-21T12:40:51;93284.31;;;8.55;66.36
6198;BME280;3132;42.622;23.328;2024-02-21T12:43:16;93273.78;;;8.40;66.95
6198;BME280;3132;42.622;23.328;2024-02-21T12:45:43;93280.53;;;8.36;67.56
6198;BME280;3132;42.622;23.328;2024-02-21T12:48:08;93272.66;;;8.62;67.50
6198;BME280;3132;42.622;23.328;2024-02-21T12:50:34;93265.69;;;8.73;67.71
6198;BME280;3132;42.622;23.328;2024-02-21T12:53:00;93270.91;;;8.73;66.77
6198;BME280;3132;42.622;23.328;2024-02-21T12:55:25;93259.03;;;8.50;66.66
6198;BME280;3132;42.622;23.328;2024-02-21T12:57:50;93269.06;;;8.68;66.66
6198;BME280;3132;42.622;23.328;2024-02-21T13:00:16;93269.47;;;8.55;66.44
6198;BME280;3132;42.622;23.328;2024-02-21T13:02:43;93269.09;;;8.78;66.00
6198;BME280;3132;42.622;23.328;2024-02-21T13:05:09;93260.22;;;8.69;65.60
6198;BME280;3132;42.622;23.328;2024-02-21T13:07:34;93260.09;;;8.96;64.87
6198;BME280;3132;42.622;23.328;2024-02-21T13:09:59;93263.75;;;8.95;62.77
6198;BME280;3132;42.622;23.328;2024-02-21T13:12:25;93228.34;;;8.99;60.86
6198;BME280;3132;42.622;23.328;2024-02-21T13:14:53;93260.16;;;9.06;64.60
6198;BME280;3132;42.622;23.328;2024-02-21T13:17:19;93258.16;;;9.28;59.63
6198;BME280;3132;42.622;23.328;2024-02-21T13:19:44;93225.31;;;9.12;59.14
6198;BME280;3132;42.622;23.328;2024-02-21T13:22:10;93251.34;;;9.17;58.74
6198;BME280;3132;42.622;23.328;2024-02-21T13:24:36;93248.22;;;9.20;58.86
6198;BME280;3132;42.622;23.328;2024-02-21T13:27:01;93242.03;;;9.26;59.27
6198;BME280;3132;42.622;23.328;2024-02-21T13:29:28;93254.56;;;9.39;61.13